sensor_id;sensor_type;location;lat;lon;timestamp;pressure;altitude;pressure_sealevel;temperature;humidity
25130;BME280;13308;50.860;13.664;2022-09-23T04:52:34;97110.09;;;5.64;100.00
25130;BME280;13308;50.860;13.664;2022-09-23T04:55:00;97103.88;;;5.67;100.00
25130;BME280;13308;50.860;13.664;2022-09-23T04:57:26;97100.34;;;5.70;100.00
25130;BME280;13308;50.860;13.664;2022-09-23T04:59:52;97106.19;;;5.68;100.00
25130;BME280;13308;50.860;13.664;2022-09-23T05:02:18;97099.13;;;5.64;100.00
25130;BME280;13308;50.860;13.664;2022-09-23T05:04:45;97097.97;;;5.65;100.00
25130;BME280;13308;50.860;13.664;2022-09-23T05:07:11;97096.47;;;5.74;100.00
25130;BME280;13308;50.860;13.664;2022-09-23T05:09:36;97103.88;;;5.67;100.00
25130;BME280;13308;50.860;13.664;2022-09-23T05:12:02;97095.66;;;5.67;100.00
25130;BME280;13308;50.860;13.664;2022-09-23T05:14:28;97104.25;;;5.69;100.00
25130;BME280;13308;50.860;13.664;2022-09-23T05:16:53;97103.09;;;5.70;100.00
25130;BME280;13308;50.860;13.664;2022-09-23T05:19:18;97104.72;;;5.78;100.00
25130;BME280;13308;50.860;13.664;2022-09-23T05:21:44;97105.97;;;5.84;100.00
25130;BME280;13308;50.860;13.664;2022-09-23T05:24:10;97109.50;;;5.88;100.00
25130;BME280;13308;50.860;13.664;2022-09-23T05:26:36;97103.13;;;5.77;100.00
25130;BME280;13308;50.860;13.664;2022-09-23T05:29:01;97110.16;;;5.74;100.00
25130;BME280;13308;50.860;13.664;2022-09-23T05:31:28;97111.72;;;5.72;100.00
25130;BME280;13308;50.860;13.664;2022-09-23T05:33:59;97115.22;;;5.72;100.00
25130;BME280;13308;50.860;13.664;2022-09-23T05:36:25;97114.84;;;5.74;100.00
25130;BME280;13308;50.860;13.664;2022-09-23T05:38:51;97110.94;;;5.75;100.00
25130;BME280;13308;50.860;13.664;2022-09-23T05:41:19;97121.22;;;5.81;100.00
25130;BME280;13308;50.860;13.664;2022-09-23T05:43:45;97111.81;;;5.82;100.00
25130;BME280;13308;50.860;13.664;2022-09-23T05:46:16;97109.50;;;5.88;100.00
25130;BME280;13308;50.860;13.664;2022-09-23T05:48:42;97111.91;;;5.93;100.00
25130;BME280;13308;50.860;13.664;2022-09-23T05:51:13;97106.41;;;5.93;100.00
25130;BME280;13308;50.860;13.664;2022-09-23T05:53:39;97109.66;;;6.09;100.00
25130;BME280;13308;50.860;13.664;2022-09-23T05:56:06;97108.88;;;6.12;100.00
25130;BME280;13308;50.860;13.664;2022-09-23T05:58:31;97103.44;;;6.19;100.00
25130;BME280;13308;50.860;13.664;2022-09-23T06:00:57;97103.91;;;6.28;100.00
25130;BME280;13308;50.860;13.664;2022-09-23T06:03:24;97103.59;;;6.47;100.00
25130;BME280;13308;50.860;13.664;2022-09-23T06:05:54;97100.53;;;6.59;100.00
25130;BME280;13308;50.860;13.664;2022-09-23T06:08:19;97100.53;;;6.66;100.00
25130;BME280;13308;50.860;13.664;2022-09-23T06:10:45;97096.69;;;6.81;100.00
25130;BME280;13308;50.860;13.664;2022-09-23T06:13:11;97102.56;;;6.90;100.00
25130;BME280;13308;50.860;13.664;2022-09-23T06:15:37;97103.41;;;7.01;100.00
25130;BME280;13308;50.860;13.664;2022-09-23T06:18:04;97102.25;;;7.12;100.00
25130;BME280;13308;50.860;13.664;2022-09-23T06:20:30;97094.44;;;7.25;100.00
25130;BME280;13308;50.860;13.664;2022-09-23T06:23:08;97105.44;;;7.39;100.00
25130;BME280;13308;50.860;13.664;2022-09-23T06:25:34;97098.41;;;7.48;100.00
25130;BME280;13308;50.860;13.664;2022-09-23T06:28:01;97101.53;;;7.61;100.00
25130;BME280;13308;50.860;13.664;2022-09-23T06:30:27;97105.84;;;7.76;100.00
25130;BME280;13308;50.860;13.664;2022-09-23T06:32:54;97101.53;;;7.85;100.00
25130;BME280;13308;50.860;13.664;2022-09-23T06:35:22;97113.66;;;8.02;100.00
25130;BME280;13308;50.860;13.664;2022-09-23T06:37:48;97108.16;;;8.19;100.00
25130;BME280;13308;50.860;13.664;2022-09-23T06:40:13;97108.13;;;8.37;100.00
25130;BME280;13308;50.860;13.664;2022-09-23T06:42:43;97116.31;;;8.50;100.00
25130;BME280;13308;50.860;13.664;2022-09-23T06:45:10;97105.31;;;8.61;100.00
25130;BME280;13308;50.860;13.664;2022-09-23T06:47:41;97110.69;;;8.89;100.00
25130;BME280;13308;50.860;13.664;2022-09-23T06:50:07;97106.72;;;9.00;100.00
25130;BME280;13308;50.860;13.664;2022-09-23T06:52:33;97114.47;;;9.16;100.00
25130;BME280;13308;50.860;13.664;2022-09-23T06:54:59;97108.13;;;9.29;100.00
25130;BME280;13308;50.860;13.664;2022-09-23T06:57:31;97111.53;;;9.47;100.00
25130;BME280;13308;50.860;13.664;2022-09-23T06:59:57;97113.38;;;9.64;100.00
25130;BME280;13308;50.860;13.664;2022-09-23T07:02:26;97110.16;;;9.76;100.00
25130;BME280;13308;50.860;13.664;2022-09-23T07:04:52;97122.53;;;9.98;100.00
25130;BME280;13308;50.860;13.664;2022-09-23T07:07:18;97116.97;;;10.09;100.00
25130;BME280;13308;50.860;13.664;2022-09-23T07:09:44;97114.03;;;10.26;100.00
25130;BME280;13308;50.860;13.664;2022-09-23T07:12:10;97123.63;;;10.52;100.00
25130;BME280;13308;50.860;13.664;2022-09-23T07:14:36;97120.31;;;10.67;100.00
25130;BME280;13308;50.860;13.664;2022-09-23T07:17:01;97121.56;;;10.93;100.00
25130;BME280;13308;50.860;13.664;2022-09-23T07:19:28;97120.31;;;11.27;100.00
25130;BME280;13308;50.860;13.664;2022-09-23T07:21:53;97120.28;;;11.57;100.00
25130;BME280;13308;50.860;13.664;2022-09-23T07:24:18;97117.72;;;11.73;100.00
25130;BME280;13308;50.860;13.664;2022-09-23T07:26:44;97120.97;;;11.91;97.13
25130;BME280;13308;50.860;13.664;2022-09-23T07:29:12;97116.38;;;12.70;98.33
25130;BME280;13308;50.860;13.664;2022-09-23T07:31:37;97128.97;;;12.74;91.24
25130;BME280;13308;50.860;13.664;2022-09-23T07:34:03;97119.88;;;13.32;92.31
25130;BME280;13308;50.860;13.664;2022-09-23T07:36:29;97138.97;;;14.30;89.37
25130;BME280;13308;50.860;13.664;2022-09-23T07:38:57;97135.19;;;15.25;83.09
25130;BME280;13308;50.860;13.664;2022-09-23T07:41:25;97138.06;;;15.75;76.92
25130;BME280;13308;50.860;13.664;2022-09-23T07:43:55;97131.63;;;16.03;73.82
25130;BME280;13308;50.860;13.664;2022-09-23T07:46:24;97137.84;;;17.00;72.17
25130;BME280;13308;50.860;13.664;2022-09-23T07:48:50;97143.69;;;17.15;70.88
25130;BME280;13308;50.860;13.664;2022-09-23T07:51:20;97147.16;;;17.40;65.28
25130;BME280;13308;50.860;13.664;2022-09-23T07:53:47;97142.53;;;18.07;63.53
25130;BME280;13308;50.860;13.664;2022-09-23T07:56:13;97142.53;;;18.07;64.88
25130;BME280;13308;50.860;13.664;2022-09-23T07:58:39;97136.22;;;17.85;62.84
25130;BME280;13308;50.860;13.664;2022-09-23T08:01:07;97145.53;;;18.13;61.71
25130;BME280;13308;50.860;13.664;2022-09-23T08:03:33;97146.88;;;18.39;60.59
25130;BME280;13308;50.860;13.664;2022-09-23T08:06:17;97150.38;;;18.30;61.78
25130;BME280;13308;50.860;13.664;2022-09-23T08:08:42;97159.50;;;18.22;56.53
25130;BME280;13308;50.860;13.664;2022-09-23T08:11:09;97154.69;;;17.83;61.53
25130;BME280;13308;50.860;13.664;2022-09-23T08:13:35;97152.69;;;16.97;58.65
25130;BME280;13308;50.860;13.664;2022-09-23T08:16:01;97153.19;;;16.24;60.83
25130;BME280;13308;50.860;13.664;2022-09-23T08:18:26;97149.31;;;15.59;63.61
25130;BME280;13308;50.860;13.664;2022-09-23T08:20:52;97145.25;;;15.07;66.55
25130;BME280;13308;50.860;13.664;2022-09-23T08:23:18;97144.94;;;14.60;68.66
25130;BME280;13308;50.860;13.664;2022-09-23T08:25:45;97145.50;;;14.23;71.46
25130;BME280;13308;50.860;13.664;2022-09-23T08:28:15;97142.78;;;14.04;74.21
25130;BME280;13308;50.860;13.664;2022-09-23T08:30:47;97140.03;;;13.68;73.79
25130;BME280;13308;50.860;13.664;2022-09-23T08:33:13;97146.03;;;14.34;72.85
25130;BME280;13308;50.860;13.664;2022-09-23T08:35:39;97149.19;;;15.22;68.84
25130;BME280;13308;50.860;13.664;2022-09-23T08:38:05;97147.28;;;15.60;67.71
25130;BME280;13308;50.860;13.664;2022-09-23T08:40:39;97142.16;;;15.46;66.93
25130;BME280;13308;50.860;13.664;2022-09-23T08:43:07;97143.59;;;15.09;68.13
25130;BME280;13308;50.860;13.664;2022-09-23T08:45:33;97125.38;;;15.74;69.34
25130;BME280;13308;50.860;13.664;2022-09-23T08:48:09;97140.06;;;15.62;71.06
25130;BME280;13308;50.860;13.664;2022-09-23T08:50:42;97127.16;;;15.43;69.91
25130;BME280;13308;50.860;13.664;2022-09-23T08:53:23;97127.72;;;15.10;71.53
25130;BME280;13308;50.860;13.664;2022-09-23T08:55:52;97125.81;;;14.78;73.34
25130;BME280;13308;50.860;13.664;2022-09-23T08:58:24;97122.88;;;14.69;74.05
25130;BME280;13308;50.860;13.664;2022-09-23T09:01:15;97120.16;;;15.64;69.37
25130;BME280;13308;50.860;13.664;2022-09-23T09:03:50;97125.44;;;16.80;65.02
25130;BME280;13308;50.860;13.664;2022-09-23T09:06:40;97125.78;;;17.98;61.99
25130;BME280;13308;50.860;13.664;2022-09-23T09:09:15;97130.00;;;18.60;54.88
25130;BME280;13308;50.860;13.664;2022-09-23T09:11:45;97129.47;;;18.35;54.82
25130;BME280;13308;50.860;13.664;2022-09-23T09:14:32;97136.47;;;18.39;56.09
25130;BME280;13308;50.860;13.664;2022-09-23T09:17:03;97128.13;;;18.66;54.66
25130;BME280;13308;50.860;13.664;2022-09-23T09:25:18;97124.97;;;20.22;47.80
25130;BME280;13308;50.860;13.664;2022-09-23T09:27:46;97135.63;;;20.33;46.00
25130;BME280;13308;50.860;13.664;2022-09-23T09:30:13;97129.41;;;20.29;46.27
25130;BME280;13308;50.860;13.664;2022-09-23T09:32:47;97137.03;;;19.87;45.43
25130;BME280;13308;50.860;13.664;2022-09-23T09:35:24;97131.53;;;19.51;46.50
25130;BME280;13308;50.860;13.664;2022-09-23T09:37:51;97131.25;;;19.49;48.74
25130;BME280;13308;50.860;13.664;2022-09-23T09:40:16;97132.81;;;20.09;47.63
25130;BME280;13308;50.860;13.664;2022-09-23T09:42:45;97121.50;;;20.27;48.98
25130;BME280;13308;50.860;13.664;2022-09-23T09:45:38;97125.16;;;21.13;44.08
25130;BME280;13308;50.860;13.664;2022-09-23T09:50:47;97115.53;;;20.02;46.99
25130;BME280;13308;50.860;13.664;2022-09-23T09:53:22;97113.47;;;19.70;46.64
25130;BME280;13308;50.860;13.664;2022-09-23T09:55:58;97112.00;;;19.42;48.43
25130;BME280;13308;50.860;13.664;2022-09-23T09:58:26;97099.44;;;20.20;47.76
25130;BME280;13308;50.860;13.664;2022-09-23T10:00:54;97105.31;;;19.30;46.62
25130;BME280;13308;50.860;13.664;2022-09-23T10:03:25;97098.50;;;18.11;48.96
25130;BME280;13308;50.860;13.664;2022-09-23T10:05:54;97100.75;;;17.55;50.47
25130;BME280;13308;50.860;13.664;2022-09-23T10:08:31;97087.81;;;17.70;50.72
25130;BME280;13308;50.860;13.664;2022-09-23T10:13:22;97089.56;;;17.46;53.18
25130;BME280;13308;50.860;13.664;2022-09-23T10:15:48;97080.41;;;17.24;52.91
25130;BME280;13308;50.860;13.664;2022-09-23T10:18:31;97080.44;;;17.03;53.69
25130;BME280;13308;50.860;13.664;2022-09-23T10:21:00;97077.06;;;17.08;54.50
25130;BME280;13308;50.860;13.664;2022-09-23T10:23:27;97076.25;;;16.64;56.52
25130;BME280;13308;50.860;13.664;2022-09-23T10:25:58;97078.94;;;16.89;54.16
25130;BME280;13308;50.860;13.664;2022-09-23T10:31:13;97073.00;;;16.44;56.61
25130;BME280;13308;50.860;13.664;2022-09-23T10:33:41;97073.88;;;16.41;54.14
25130;BME280;13308;50.860;13.664;2022-09-23T10:36:09;97076.09;;;16.46;54.04
25130;BME280;13308;50.860;13.664;2022-09-23T10:38:35;97074.66;;;16.97;53.89
25130;BME280;13308;50.860;13.664;2022-09-23T10:41:01;97077.72;;;18.12;51.68
25130;BME280;13308;50.860;13.664;2022-09-23T10:43:58;97079.97;;;19.16;49.84
25130;BME280;13308;50.860;13.664;2022-09-23T10:47:01;97071.50;;;20.02;51.67
25130;BME280;13308;50.860;13.664;2022-09-23T10:57:35;97075.41;;;20.52;44.71
25130;BME280;13308;50.860;13.664;2022-09-23T11:00:17;97066.41;;;20.71;49.02
25130;BME280;13308;50.860;13.664;2022-09-23T11:03:42;97060.22;;;20.20;47.03
25130;BME280;13308;50.860;13.664;2022-09-23T11:06:28;97058.78;;;19.51;47.58
25130;BME280;13308;50.860;13.664;2022-09-23T11:17:21;97028.03;;;16.67;53.98
25130;BME280;13308;50.860;13.664;2022-09-23T11:20:57;97027.69;;;16.65;53.66
25130;BME280;13308;50.860;13.664;2022-09-23T11:23:36;97020.34;;;16.25;55.04
25130;BME280;13308;50.860;13.664;2022-09-23T11:28:55;97017.25;;;15.76;57.61
25130;BME280;13308;50.860;13.664;2022-09-23T11:32:00;97008.50;;;15.99;59.13
25130;BME280;13308;50.860;13.664;2022-09-23T11:34:40;97015.75;;;15.97;57.21
25130;BME280;13308;50.860;13.664;2022-09-23T11:37:12;97017.22;;;16.01;55.94
25130;BME280;13308;50.860;13.664;2022-09-23T11:39:45;97016.97;;;16.08;56.47
25130;BME280;13308;50.860;13.664;2022-09-23T11:42:33;97011.00;;;16.31;56.60
25130;BME280;13308;50.860;13.664;2022-09-23T11:45:14;97013.31;;;15.99;56.37
25130;BME280;13308;50.860;13.664;2022-09-23T11:47:46;97002.31;;;15.95;59.59
25130;BME280;13308;50.860;13.664;2022-09-23T11:50:28;96999.63;;;15.92;57.85
25130;BME280;13308;50.860;13.664;2022-09-23T11:53:08;97003.38;;;16.10;57.91
25130;BME280;13308;50.860;13.664;2022-09-23T11:55:43;97000.47;;;16.14;58.57
25130;BME280;13308;50.860;13.664;2022-09-23T11:58:16;96994.44;;;16.15;58.43
25130;BME280;13308;50.860;13.664;2022-09-23T12:01:06;96984.88;;;16.16;59.46
25130;BME280;13308;50.860;13.664;2022-09-23T12:03:41;96990.50;;;16.04;57.02
25130;BME280;13308;50.860;13.664;2022-09-23T12:06:21;96984.78;;;16.41;56.41
25130;BME280;13308;50.860;13.664;2022-09-23T12:08:52;96991.03;;;16.45;55.09
25130;BME280;13308;50.860;13.664;2022-09-23T12:11:29;96977.25;;;16.29;60.37
25130;BME280;13308;50.860;13.664;2022-09-23T12:14:19;96982.41;;;16.18;58.09
25130;BME280;13308;50.860;13.664;2022-09-23T12:20:07;96972.91;;;16.41;63.92
25130;BME280;13308;50.860;13.664;2022-09-23T12:23:01;96975.69;;;16.41;60.45
25130;BME280;13308;50.860;13.664;2022-09-23T12:25:55;96970.22;;;16.37;59.00
25130;BME280;13308;50.860;13.664;2022-09-23T12:28:25;96980.69;;;16.33;59.57
25130;BME280;13308;50.860;13.664;2022-09-23T12:30:54;96971.94;;;16.22;62.07
25130;BME280;13308;50.860;13.664;2022-09-23T12:33:26;96976.34;;;16.32;57.29
25130;BME280;13308;50.860;13.664;2022-09-23T12:38:49;96977.41;;;15.79;59.45
25130;BME280;13308;50.860;13.664;2022-09-23T12:41:19;96968.97;;;15.70;61.85
25130;BME280;13308;50.860;13.664;2022-09-23T12:43:57;96966.78;;;15.65;59.83
25130;BME280;13308;50.860;13.664;2022-09-23T12:46:25;96965.50;;;15.79;62.01
25130;BME280;13308;50.860;13.664;2022-09-23T12:51:23;96960.09;;;15.63;59.78
25130;BME280;13308;50.860;13.664;2022-09-23T12:53:55;96959.19;;;15.78;58.93
25130;BME280;13308;50.860;13.664;2022-09-23T12:56:26;96953.84;;;16.05;61.33
25130;BME280;13308;50.860;13.664;2022-09-23T13:01:19;96959.84;;;17.11;57.18
25130;BME280;13308;50.860;13.664;2022-09-23T13:03:47;96949.06;;;17.62;56.61
25130;BME280;13308;50.860;13.664;2022-09-23T13:06:41;96952.25;;;18.72;55.62
25130;BME280;13308;50.860;13.664;2022-09-23T13:09:20;96945.44;;;19.23;50.05
25130;BME280;13308;50.860;13.664;2022-09-23T13:11:47;96949.69;;;20.07;45.84
25130;BME280;13308;50.860;13.664;2022-09-23T13:14:17;96953.91;;;21.22;48.09
25130;BME280;13308;50.860;13.664;2022-09-23T13:16:46;96935.63;;;20.83;46.89
25130;BME280;13308;50.860;13.664;2022-09-23T13:26:53;96938.31;;;20.01;47.30
25130;BME280;13308;50.860;13.664;2022-09-23T13:29:24;96927.09;;;20.10;49.40
25130;BME280;13308;50.860;13.664;2022-09-23T13:31:52;96927.28;;;19.51;48.30
25130;BME280;13308;50.860;13.664;2022-09-23T13:34:21;96927.47;;;18.38;50.48
25130;BME280;13308;50.860;13.664;2022-09-23T13:36:48;96921.88;;;18.38;51.89
25130;BME280;13308;50.860;13.664;2022-09-23T13:39:24;96924.72;;;19.62;48.11
25130;BME280;13308;50.860;13.664;2022-09-23T13:41:52;96908.41;;;19.84;49.45
25130;BME280;13308;50.860;13.664;2022-09-23T13:44:19;96911.41;;;19.24;50.67
25130;BME280;13308;50.860;13.664;2022-09-23T13:46:51;96911.09;;;18.81;52.65
25130;BME280;13308;50.860;13.664;2022-09-23T13:49:31;96909.59;;;17.99;51.52
25130;BME280;13308;50.860;13.664;2022-09-23T13:51:58;96905.25;;;18.25;51.48
25130;BME280;13308;50.860;13.664;2022-09-23T13:54:31;96903.06;;;18.47;51.38
25130;BME280;13308;50.860;13.664;2022-09-23T13:56:59;96897.19;;;18.36;52.15
25130;BME280;13308;50.860;13.664;2022-09-23T13:59:36;96895.31;;;18.24;51.80
25130;BME280;13308;50.860;13.664;2022-09-23T14:02:10;96900.59;;;17.95;53.24
25130;BME280;13308;50.860;13.664;2022-09-23T14:04:36;96896.88;;;17.89;52.19
25130;BME280;13308;50.860;13.664;2022-09-23T14:07:01;96889.34;;;17.41;52.02
25130;BME280;13308;50.860;13.664;2022-09-23T14:09:28;96892.97;;;17.11;54.10
25130;BME280;13308;50.860;13.664;2022-09-23T14:11:57;96882.69;;;16.69;54.36
25130;BME280;13308;50.860;13.664;2022-09-23T14:14:23;96871.16;;;16.79;54.53
25130;BME280;13308;50.860;13.664;2022-09-23T14:16:50;96873.06;;;16.91;55.32
25130;BME280;13308;50.860;13.664;2022-09-23T14:19:18;96872.34;;;17.57;54.90
25130;BME280;13308;50.860;13.664;2022-09-23T14:21:47;96877.00;;;17.96;52.12
25130;BME280;13308;50.860;13.664;2022-09-23T14:24:21;96870.63;;;18.23;53.06
25130;BME280;13308;50.860;13.664;2022-09-23T14:26:50;96861.97;;;18.39;51.33
25130;BME280;13308;50.860;13.664;2022-09-23T14:29:24;96868.97;;;18.16;52.77
25130;BME280;13308;50.860;13.664;2022-09-23T14:31:53;96857.31;;;18.18;53.13
25130;BME280;13308;50.860;13.664;2022-09-23T14:34:38;96870.50;;;18.17;52.56
25130;BME280;13308;50.860;13.664;2022-09-23T14:37:24;96860.44;;;18.79;51.42
25130;BME280;13308;50.860;13.664;2022-09-23T14:40:21;96861.84;;;19.25;49.39
25130;BME280;13308;50.860;13.664;2022-09-23T14:45:26;96858.53;;;20.20;48.10
25130;BME280;13308;50.860;13.664;2022-09-23T14:48:03;96858.91;;;21.15;46.83
25130;BME280;13308;50.860;13.664;2022-09-23T14:50:30;96853.88;;;21.19;45.79
25130;BME280;13308;50.860;13.664;2022-09-23T14:55:48;96852.34;;;19.93;48.55
25130;BME280;13308;50.860;13.664;2022-09-23T14:58:18;96841.63;;;18.29;52.93
25130;BME280;13308;50.860;13.664;2022-09-23T15:01:17;96845.97;;;18.48;51.83
25130;BME280;13308;50.860;13.664;2022-09-23T15:03:46;96841.81;;;17.54;54.48
25130;BME280;13308;50.860;13.664;2022-09-23T15:06:11;96828.56;;;17.18;56.23
25130;BME280;13308;50.860;13.664;2022-09-23T15:08:37;96830.22;;;17.64;55.31
25130;BME280;13308;50.860;13.664;2022-09-23T15:11:03;96829.97;;;17.32;55.92
25130;BME280;13308;50.860;13.664;2022-09-23T15:13:30;96829.34;;;16.70;57.76
25130;BME280;13308;50.860;13.664;2022-09-23T15:15:56;96832.56;;;17.08;56.04
25130;BME280;13308;50.860;13.664;2022-09-23T15:18:25;96825.56;;;16.55;58.93
25130;BME280;13308;50.860;13.664;2022-09-23T15:20:54;96830.25;;;16.67;58.59
25130;BME280;13308;50.860;13.664;2022-09-23T15:26:09;96832.97;;;17.73;56.34
25130;BME280;13308;50.860;13.664;2022-09-23T15:28:35;96835.16;;;17.78;55.88
25130;BME280;13308;50.860;13.664;2022-09-23T15:31:01;96834.53;;;17.56;54.98
25130;BME280;13308;50.860;13.664;2022-09-23T15:33:27;96836.56;;;17.07;56.23
25130;BME280;13308;50.860;13.664;2022-09-23T15:35:54;96825.09;;;16.57;59.05
25130;BME280;13308;50.860;13.664;2022-09-23T15:38:20;96817.00;;;16.19;60.67
25130;BME280;13308;50.860;13.664;2022-09-23T15:40:46;96819.06;;;16.06;62.30
25130;BME280;13308;50.860;13.664;2022-09-23T15:43:19;96818.56;;;15.77;64.34
25130;BME280;13308;50.860;13.664;2022-09-23T15:45:50;96809.94;;;15.41;66.77
25130;BME280;13308;50.860;13.664;2022-09-23T15:48:26;96813.47;;;15.29;70.39
25130;BME280;13308;50.860;13.664;2022-09-23T15:50:54;96812.47;;;15.48;67.90
25130;BME280;13308;50.860;13.664;2022-09-23T15:53:24;96806.41;;;15.16;69.57
25130;BME280;13308;50.860;13.664;2022-09-23T15:55:50;96804.22;;;14.98;71.64
25130;BME280;13308;50.860;13.664;2022-09-23T15:58:20;96805.91;;;14.83;72.77
25130;BME280;13308;50.860;13.664;2022-09-23T16:00:47;96795.47;;;14.62;73.88
25130;BME280;13308;50.860;13.664;2022-09-23T16:03:15;96787.38;;;14.68;73.93
25130;BME280;13308;50.860;13.664;2022-09-23T16:05:43;96786.28;;;14.65;74.16
25130;BME280;13308;50.860;13.664;2022-09-23T16:08:11;96788.50;;;14.45;75.32
25130;BME280;13308;50.860;13.664;2022-09-23T16:10:37;96778.63;;;14.19;76.24
25130;BME280;13308;50.860;13.664;2022-09-23T16:13:04;96778.13;;;14.08;78.45
25130;BME280;13308;50.860;13.664;2022-09-23T16:15:31;96777.00;;;13.93;78.04
25130;BME280;13308;50.860;13.664;2022-09-23T16:17:57;96781.41;;;13.78;78.74
25130;BME280;13308;50.860;13.664;2022-09-23T16:20:24;96774.72;;;13.63;79.06
25130;BME280;13308;50.860;13.664;2022-09-23T16:22:57;96770.19;;;13.69;79.36
25130;BME280;13308;50.860;13.664;2022-09-23T16:25:24;96779.25;;;13.57;79.96
25130;BME280;13308;50.860;13.664;2022-09-23T16:27:53;96771.09;;;13.50;80.19
25130;BME280;13308;50.860;13.664;2022-09-23T16:30:24;96773.84;;;13.38;81.88
25130;BME280;13308;50.860;13.664;2022-09-23T16:32:50;96771.50;;;13.36;83.07
25130;BME280;13308;50.860;13.664;2022-09-23T16:35:21;96773.97;;;13.18;83.89
25130;BME280;13308;50.860;13.664;2022-09-23T16:37:47;96768.38;;;13.06;86.96
25130;BME280;13308;50.860;13.664;2022-09-23T16:40:15;96769.44;;;12.96;86.61
25130;BME280;13308;50.860;13.664;2022-09-23T16:42:42;96774.97;;;12.80;87.78
25130;BME280;13308;50.860;13.664;2022-09-23T16:45:09;96774.81;;;12.71;88.76
25130;BME280;13308;50.860;13.664;2022-09-23T16:47:41;96779.22;;;12.52;90.85
25130;BME280;13308;50.860;13.664;2022-09-23T16:50:08;96770.88;;;12.36;91.90
25130;BME280;13308;50.860;13.664;2022-09-23T16:52:33;96774.03;;;12.38;91.75
25130;BME280;13308;50.860;13.664;2022-09-23T16:54:59;96773.47;;;12.27;93.42
25130;BME280;13308;50.860;13.664;2022-09-23T16:57:24;96771.56;;;12.08;95.10
25130;BME280;13308;50.860;13.664;2022-09-23T16:59:50;96768.00;;;12.08;95.16
25130;BME280;13308;50.860;13.664;2022-09-23T17:02:33;96764.16;;;11.86;97.40
25130;BME280;13308;50.860;13.664;2022-09-23T17:05:17;96759.00;;;11.68;98.59
25130;BME280;13308;50.860;13.664;2022-09-23T17:07:43;96754.41;;;11.62;98.08
25130;BME280;13308;50.860;13.664;2022-09-23T17:10:08;96750.84;;;11.42;99.67
25130;BME280;13308;50.860;13.664;2022-09-23T17:12:35;96751.84;;;11.32;100.00
25130;BME280;13308;50.860;13.664;2022-09-23T17:15:05;96747.34;;;11.18;100.00
25130;BME280;13308;50.860;13.664;2022-09-23T17:17:34;96753.03;;;11.11;100.00
25130;BME280;13308;50.860;13.664;2022-09-23T17:20:02;96751.59;;;11.03;100.00
25130;BME280;13308;50.860;13.664;2022-09-23T17:22:29;96750.66;;;10.90;100.00
25130;BME280;13308;50.860;13.664;2022-09-23T17:24:55;96748.94;;;10.77;100.00
25130;BME280;13308;50.860;13.664;2022-09-23T17:27:20;96751.41;;;10.71;100.00
25130;BME280;13308;50.860;13.664;2022-09-23T17:29:45;96751.50;;;10.64;100.00
25130;BME280;13308;50.860;13.664;2022-09-23T17:32:11;96752.50;;;10.54;100.00
25130;BME280;13308;50.860;13.664;2022-09-23T17:34:36;96747.44;;;10.49;100.00
